createdAt,value
2018-08-31T00:00:47.596Z,61.26
2018-08-31T00:03:22.480Z,60.84
2018-08-31T00:06:02.084Z,61.30
2018-08-31T00:09:07.013Z,60.94
2018-08-31T00:11:43.982Z,60.79
2018-08-31T00:14:12.260Z,61.08
2018-08-31T00:16:40.508Z,60.70
2018-08-31T00:19:08.727Z,60.13
2018-08-31T00:21:36.988Z,60.27
2018-08-31T00:24:16.607Z,59.88
2018-08-31T00:26:56.166Z,59.97
2018-08-31T00:29:36.549Z,60.00
2018-08-31T00:34:20.496Z,60.05
2018-08-31T00:37:00.201Z,61.07
2018-08-31T00:39:47.196Z,62.59
2018-08-31T00:42:32.560Z,61.37
2018-08-31T00:45:28.608Z,61.86
2018-08-31T00:47:57.700Z,62.37
2018-08-31T00:50:25.919Z,62.75
2018-08-31T00:52:54.228Z,62.76
2018-08-31T00:55:22.464Z,63.77
2018-08-31T00:57:51.145Z,63.66
2018-08-31T01:00:19.905Z,63.66
2018-08-31T01:02:48.253Z,63.93
2018-08-31T01:05:17.163Z,63.92
2018-08-31T01:07:45.484Z,63.56
2018-08-31T01:10:13.739Z,62.93
2018-08-31T01:12:42.069Z,63.07
2018-08-31T01:15:10.684Z,62.64
2018-08-31T01:17:38.903Z,62.81
2018-08-31T01:20:07.867Z,62.00
2018-08-31T01:22:36.214Z,62.60
2018-08-31T01:25:04.448Z,61.89
2018-08-31T01:27:32.668Z,62.24
2018-08-31T01:30:00.900Z,61.33
2018-08-31T01:32:29.154Z,61.54
2018-08-31T01:34:57.380Z,61.36
2018-08-31T01:37:25.593Z,61.34
2018-08-31T01:39:53.837Z,61.69
2018-08-31T01:42:22.073Z,61.74
2018-08-31T01:44:50.304Z,61.45
2018-08-31T01:47:18.513Z,61.94
2018-08-31T01:49:46.740Z,61.39
2018-08-31T01:52:14.994Z,61.29
2018-08-31T01:54:43.238Z,61.03
2018-08-31T01:57:11.451Z,60.80
2018-08-31T01:59:39.736Z,61.93
2018-08-31T02:02:07.969Z,61.92
2018-08-31T02:04:36.220Z,62.65
2018-08-31T02:07:04.476Z,62.92
2018-08-31T02:09:32.716Z,63.46
2018-08-31T02:12:00.943Z,63.60
2018-08-31T02:14:29.181Z,64.07
2018-08-31T02:16:57.413Z,63.51
2018-08-31T02:19:25.672Z,63.58
2018-08-31T02:21:53.916Z,62.77
2018-08-31T02:24:22.152Z,62.92
2018-08-31T02:26:50.401Z,63.06
2018-08-31T02:29:18.630Z,63.37
2018-08-31T02:31:46.860Z,62.96
2018-08-31T02:34:15.076Z,63.50
2018-08-31T02:36:43.327Z,62.70
2018-08-31T02:39:11.600Z,62.65
2018-08-31T02:41:39.812Z,62.67
2018-08-31T02:44:08.028Z,63.22
2018-08-31T02:46:36.279Z,62.63
2018-08-31T02:49:04.492Z,62.77
2018-08-31T02:51:32.747Z,63.13
2018-08-31T02:54:00.968Z,63.59
2018-08-31T02:56:29.216Z,63.75
2018-08-31T02:58:57.460Z,64.49
2018-08-31T03:01:25.684Z,64.42
2018-08-31T03:03:53.912Z,64.33
2018-08-31T03:06:22.172Z,64.14
2018-08-31T03:08:50.392Z,63.83
2018-08-31T03:11:18.629Z,64.12
2018-08-31T03:13:46.852Z,64.77
2018-08-31T03:16:15.082Z,64.58
2018-08-31T03:18:43.332Z,64.64
2018-08-31T03:21:11.563Z,64.30
2018-08-31T03:23:39.836Z,64.09
2018-08-31T03:26:08.052Z,64.06
2018-08-31T03:28:36.320Z,63.47
2018-08-31T03:31:04.544Z,63.59
2018-08-31T03:33:32.780Z,63.39
2018-08-31T03:36:01.018Z,63.83
2018-08-31T03:38:29.281Z,63.68
2018-08-31T03:40:57.496Z,63.49
2018-08-31T03:43:25.733Z,63.40
2018-08-31T03:45:53.956Z,63.54
2018-08-31T03:48:22.255Z,63.77
2018-08-31T03:50:50.503Z,63.79
2018-08-31T03:53:18.777Z,63.73
2018-08-31T03:55:46.976Z,64.36
2018-08-31T03:58:15.188Z,64.77
2018-08-31T04:00:43.446Z,64.77
2018-08-31T04:03:12.085Z,64.76
2018-08-31T04:05:40.329Z,64.57
2018-08-31T04:08:08.648Z,64.99
2018-08-31T04:10:36.914Z,64.45
2018-08-31T04:13:05.239Z,65.14
2018-08-31T04:15:33.489Z,65.04
2018-08-31T04:18:01.758Z,65.20
2018-08-31T04:20:29.988Z,64.86
2018-08-31T04:22:58.204Z,64.85
2018-08-31T04:25:26.445Z,64.49
2018-08-31T04:27:54.685Z,64.40
2018-08-31T04:30:22.924Z,64.09
2018-08-31T04:32:51.143Z,64.11
2018-08-31T04:35:19.383Z,63.31
2018-08-31T04:37:47.625Z,63.54
2018-08-31T04:40:15.893Z,63.84
2018-08-31T04:42:44.192Z,64.48
2018-08-31T04:45:12.416Z,64.23
2018-08-31T04:47:40.650Z,64.56
2018-08-31T04:50:08.897Z,63.95
2018-08-31T04:52:37.147Z,64.54
2018-08-31T04:55:05.368Z,64.53
2018-08-31T04:57:33.597Z,64.73
2018-08-31T05:00:01.901Z,64.05
2018-08-31T05:02:30.129Z,64.13
2018-08-31T05:04:58.351Z,63.82
2018-08-31T05:07:26.583Z,64.04
2018-08-31T05:09:54.800Z,64.02
2018-08-31T05:17:22.254Z,64.22
2018-08-31T05:19:50.485Z,64.40
2018-08-31T05:22:18.770Z,64.27
2018-08-31T05:24:46.984Z,64.09
2018-08-31T05:27:15.281Z,64.61
2018-08-31T05:29:43.529Z,64.74
2018-08-31T05:32:11.874Z,64.58
2018-08-31T05:34:41.237Z,64.16
2018-08-31T05:37:09.518Z,64.96
2018-08-31T05:39:37.747Z,64.62
2018-08-31T05:42:06.016Z,64.27
2018-08-31T05:44:34.236Z,64.06
2018-08-31T05:47:02.484Z,64.27
2018-08-31T05:49:30.713Z,63.96
2018-08-31T05:51:59.476Z,64.37
2018-08-31T05:54:27.740Z,63.81
2018-08-31T05:56:56.021Z,63.72
2018-08-31T05:59:24.298Z,63.50
2018-08-31T06:01:52.577Z,62.72
2018-08-31T06:04:20.856Z,62.89
2018-08-31T06:06:49.116Z,63.34
2018-08-31T06:09:17.413Z,64.08
2018-08-31T06:11:45.699Z,63.96
2018-08-31T06:14:13.976Z,63.96
2018-08-31T06:16:42.245Z,63.91
2018-08-31T06:19:10.524Z,64.46
2018-08-31T06:21:38.794Z,64.51
2018-08-31T06:24:07.129Z,64.54
2018-08-31T06:26:35.408Z,65.06
2018-08-31T06:29:03.755Z,65.36
2018-08-31T06:31:32.005Z,65.63
2018-08-31T06:34:00.339Z,66.67
2018-08-31T06:36:28.542Z,65.78
2018-08-31T06:38:56.885Z,65.80
2018-08-31T06:41:25.136Z,66.19
2018-08-31T06:43:53.396Z,65.41
2018-08-31T06:46:21.650Z,65.19
2018-08-31T06:48:50.669Z,64.90
2018-08-31T06:51:18.963Z,64.79
2018-08-31T06:53:47.228Z,65.02
2018-08-31T06:56:15.482Z,64.56
2018-08-31T06:58:43.770Z,64.70
2018-08-31T07:01:12.045Z,64.35
2018-08-31T07:03:40.403Z,64.28
2018-08-31T07:06:08.663Z,64.45
2018-08-31T07:08:36.905Z,63.46
2018-08-31T07:11:05.213Z,63.98
2018-08-31T07:13:33.452Z,63.71
2018-08-31T07:16:01.731Z,62.65
2018-08-31T07:18:29.969Z,63.19
2018-08-31T07:20:58.232Z,62.05
2018-08-31T07:23:26.488Z,63.16
2018-08-31T07:25:54.773Z,62.80
2018-08-31T07:28:23.046Z,62.63
2018-08-31T07:30:51.335Z,62.49
2018-08-31T07:33:19.587Z,63.01
2018-08-31T07:35:47.874Z,62.70
2018-08-31T07:38:16.080Z,62.41
2018-08-31T07:40:44.329Z,62.55
2018-08-31T07:43:12.556Z,63.47
2018-08-31T07:45:40.888Z,63.44
2018-08-31T07:48:09.132Z,63.80
2018-08-31T07:50:37.392Z,62.33
2018-08-31T07:53:05.681Z,62.53
2018-08-31T07:55:33.962Z,63.13
2018-08-31T07:58:03.014Z,63.02
2018-08-31T08:00:31.307Z,62.14
2018-08-31T08:02:59.533Z,62.71
2018-08-31T08:05:28.085Z,62.50
2018-08-31T08:07:56.361Z,61.51
2018-08-31T08:10:24.664Z,62.00
2018-08-31T08:12:52.978Z,62.18
2018-08-31T08:15:21.229Z,60.75
2018-08-31T08:17:49.500Z,61.57
2018-08-31T08:20:17.768Z,60.14
2018-08-31T08:22:46.109Z,61.81
2018-08-31T08:25:14.358Z,61.89
2018-08-31T08:27:42.618Z,61.01
2018-08-31T08:30:10.926Z,60.47
2018-08-31T08:32:39.242Z,60.20
2018-08-31T08:35:07.702Z,60.29
2018-08-31T08:37:35.973Z,59.22
2018-08-31T08:40:04.268Z,60.33
2018-08-31T08:42:32.627Z,59.89
2018-08-31T08:45:00.886Z,60.00
2018-08-31T08:47:29.345Z,59.27
2018-08-31T08:49:57.592Z,58.51
2018-08-31T08:52:25.864Z,58.96
2018-08-31T08:54:54.093Z,59.79
2018-08-31T08:57:22.407Z,59.42
2018-08-31T08:59:50.659Z,58.73
2018-08-31T09:02:18.928Z,57.89
2018-08-31T09:04:47.157Z,57.55
2018-08-31T09:07:17.156Z,56.34
2018-08-31T09:09:46.224Z,55.51
2018-08-31T09:12:14.481Z,55.64
2018-08-31T09:14:42.708Z,56.89
2018-08-31T09:17:10.944Z,56.49
2018-08-31T09:19:39.653Z,54.47
2018-08-31T09:22:07.877Z,54.07
2018-08-31T09:24:36.192Z,55.42
2018-08-31T09:27:04.388Z,54.53
2018-08-31T09:29:32.622Z,53.98
2018-08-31T09:32:04.989Z,54.50
2018-08-31T09:34:38.208Z,54.33
2018-08-31T09:37:10.108Z,52.62
2018-08-31T09:39:39.009Z,52.97
2018-08-31T09:42:08.490Z,54.27
2018-08-31T09:44:36.762Z,51.90
2018-08-31T09:47:05.088Z,50.45
2018-08-31T09:49:33.325Z,51.61
2018-08-31T09:52:01.660Z,53.04
2018-08-31T09:54:29.916Z,52.12
2018-08-31T09:56:58.397Z,52.85
2018-08-31T09:59:26.628Z,51.01
2018-08-31T10:01:59.003Z,48.78
2018-08-31T10:04:27.309Z,49.89
2018-08-31T10:06:55.569Z,49.12
2018-08-31T10:09:23.800Z,49.73
2018-08-31T10:11:52.000Z,49.42
2018-08-31T10:14:20.244Z,49.09
2018-08-31T10:16:48.516Z,50.17
2018-08-31T10:19:16.785Z,48.78
2018-08-31T10:21:45.073Z,48.41
2018-08-31T10:24:13.288Z,47.76
2018-08-31T10:26:41.524Z,47.91
2018-08-31T10:29:09.728Z,48.27
2018-08-31T10:31:37.996Z,47.05
2018-08-31T10:34:06.223Z,44.20
2018-08-31T10:36:34.460Z,45.20
2018-08-31T10:39:02.764Z,45.22
2018-08-31T10:41:31.011Z,44.62
2018-08-31T10:43:59.228Z,43.04
2018-08-31T10:46:27.536Z,44.24
2018-08-31T10:48:55.692Z,45.49
2018-08-31T10:51:23.935Z,45.26
2018-08-31T10:53:52.136Z,43.69
2018-08-31T10:56:20.360Z,44.30
2018-08-31T10:58:48.560Z,42.07
2018-08-31T11:01:16.788Z,42.88
2018-08-31T11:03:45.034Z,41.35
2018-08-31T11:06:13.268Z,42.09
2018-08-31T11:08:41.480Z,41.98
2018-08-31T11:11:09.699Z,42.16
2018-08-31T11:13:38.132Z,43.36
2018-08-31T11:16:06.433Z,41.40
2018-08-31T11:18:34.684Z,42.44
2018-08-31T11:21:02.884Z,43.61
2018-08-31T11:23:31.148Z,42.64
2018-08-31T11:25:59.347Z,42.63
2018-08-31T11:28:27.563Z,42.00
2018-08-31T11:30:55.761Z,42.81
2018-08-31T11:33:23.988Z,42.19
2018-08-31T11:35:52.198Z,41.97
2018-08-31T11:38:20.420Z,40.67
2018-08-31T11:40:48.649Z,42.85
2018-08-31T11:43:16.922Z,42.68
2018-08-31T11:45:45.110Z,42.14
2018-08-31T11:48:13.321Z,41.66
2018-08-31T11:50:41.544Z,42.25
2018-08-31T11:53:09.775Z,40.85
2018-08-31T11:55:37.971Z,41.50
2018-08-31T11:58:06.196Z,41.69
2018-08-31T12:00:34.412Z,42.23
2018-08-31T12:03:02.639Z,42.78
2018-08-31T12:05:30.828Z,41.97
2018-08-31T12:07:59.071Z,41.92
2018-08-31T12:10:27.260Z,44.18
2018-08-31T12:12:55.488Z,43.41
2018-08-31T12:15:23.708Z,41.97
2018-08-31T12:17:51.999Z,42.45
2018-08-31T12:20:20.221Z,42.25
2018-08-31T12:22:48.428Z,42.37
2018-08-31T12:25:16.670Z,41.82
2018-08-31T12:27:45.437Z,42.49
2018-08-31T12:30:14.527Z,41.93
2018-08-31T12:32:42.896Z,42.18
2018-08-31T12:35:11.208Z,42.06
2018-08-31T12:37:39.482Z,41.75
2018-08-31T12:40:08.469Z,41.62
2018-08-31T12:42:36.742Z,39.82
2018-08-31T12:45:05.260Z,40.96
2018-08-31T12:47:33.460Z,41.32
2018-08-31T12:50:01.713Z,41.47
2018-08-31T12:52:30.252Z,40.81
2018-08-31T12:54:58.547Z,41.19
2018-08-31T12:57:26.792Z,40.71
2018-08-31T12:59:59.645Z,38.43
2018-08-31T13:02:29.065Z,39.41
2018-08-31T13:04:57.317Z,37.80
2018-08-31T13:07:25.556Z,37.52
2018-08-31T13:09:53.829Z,37.84
2018-08-31T13:12:22.052Z,37.12
2018-08-31T13:14:50.312Z,36.80
2018-08-31T13:17:18.625Z,37.72
2018-08-31T13:19:46.994Z,37.41
2018-08-31T13:22:15.215Z,37.32
2018-08-31T13:24:43.512Z,37.64
2018-08-31T13:27:11.736Z,36.74
2018-08-31T13:29:39.956Z,37.11
2018-08-31T13:32:09.084Z,37.00
2018-08-31T13:34:37.419Z,38.36
2018-08-31T13:37:05.996Z,37.31
2018-08-31T13:39:34.371Z,36.75
2018-08-31T13:42:02.738Z,37.18
2018-08-31T13:44:31.269Z,35.52
2018-08-31T13:46:59.924Z,35.82
2018-08-31T13:49:28.408Z,36.68
2018-08-31T13:51:56.756Z,35.84
2018-08-31T13:54:24.990Z,37.07
2018-08-31T13:56:53.549Z,37.20
2018-08-31T13:59:21.756Z,38.56
2018-08-31T14:01:49.972Z,43.14
2018-08-31T14:04:18.228Z,44.60
2018-08-31T14:06:46.549Z,44.92
2018-08-31T14:09:14.773Z,44.40
2018-08-31T14:11:43.088Z,44.85
2018-08-31T14:14:11.525Z,45.58
2018-08-31T14:16:39.797Z,45.23
2018-08-31T14:19:09.472Z,45.97
2018-08-31T14:21:38.093Z,45.77
2018-08-31T14:24:06.591Z,45.38
2018-08-31T14:26:34.864Z,45.15
2018-08-31T14:29:03.117Z,45.13
2018-08-31T14:31:31.404Z,43.33
2018-08-31T14:33:59.645Z,44.42
2018-08-31T14:36:27.979Z,44.05
2018-08-31T14:38:56.204Z,44.60
2018-08-31T14:41:24.432Z,44.05
2018-08-31T14:43:52.839Z,44.57
2018-08-31T14:46:21.165Z,43.91
2018-08-31T14:48:49.403Z,43.58
2018-08-31T14:51:17.672Z,44.74
2018-08-31T14:53:45.940Z,43.54
2018-08-31T14:56:14.144Z,43.34
2018-08-31T14:58:42.651Z,42.31
2018-08-31T15:01:11.048Z,42.20
2018-08-31T15:03:39.709Z,41.33
2018-08-31T15:06:07.967Z,42.52
2018-08-31T15:08:36.383Z,41.97
2018-08-31T15:11:05.248Z,41.72
2018-08-31T15:13:33.770Z,43.24
2018-08-31T15:16:02.324Z,42.08
2018-08-31T15:18:31.078Z,41.83
2018-08-31T15:20:59.500Z,42.04
2018-08-31T15:23:28.426Z,41.39
2018-08-31T15:25:57.102Z,41.57
2018-08-31T15:28:25.430Z,41.65
2018-08-31T15:30:54.044Z,42.60
2018-08-31T15:33:22.820Z,42.62
2018-08-31T15:35:51.058Z,41.93
2018-08-31T15:38:19.294Z,42.54
2018-08-31T15:40:47.523Z,43.45
2018-08-31T15:43:15.748Z,41.84
2018-08-31T15:45:43.996Z,42.04
2018-08-31T15:48:12.201Z,42.05
2018-08-31T15:50:40.471Z,42.45
2018-08-31T15:53:08.703Z,41.66
2018-08-31T15:55:36.932Z,41.54
2018-08-31T15:58:05.224Z,41.18
2018-08-31T16:00:34.112Z,42.20
2018-08-31T16:03:02.318Z,41.06
2018-08-31T16:05:30.564Z,40.78
2018-08-31T16:07:58.816Z,40.21
2018-08-31T16:10:27.055Z,39.71
2018-08-31T16:12:56.625Z,41.00
2018-08-31T16:15:24.909Z,39.71
2018-08-31T16:17:53.104Z,40.33
2018-08-31T16:20:21.675Z,40.23
2018-08-31T16:22:49.964Z,40.35
2018-08-31T16:25:18.195Z,40.97
2018-08-31T16:27:46.480Z,40.27
2018-08-31T16:30:14.721Z,38.78
2018-08-31T16:32:42.952Z,39.29
2018-08-31T16:35:11.216Z,40.05
2018-08-31T16:37:39.444Z,40.74
2018-08-31T16:40:08.468Z,41.23
2018-08-31T16:42:36.712Z,42.08
2018-08-31T16:45:05.037Z,41.58
2018-08-31T16:47:33.281Z,42.12
2018-08-31T16:50:01.500Z,41.69
2018-08-31T16:52:29.764Z,41.83
2018-08-31T16:54:57.997Z,42.08
2018-08-31T16:57:26.252Z,42.89
2018-08-31T16:59:54.473Z,42.32
2018-08-31T17:02:22.757Z,43.02
2018-08-31T17:04:50.959Z,43.37
2018-08-31T17:07:19.188Z,43.42
2018-08-31T17:09:47.400Z,43.33
2018-08-31T17:12:15.648Z,43.33
2018-08-31T17:14:43.881Z,44.04
2018-08-31T17:17:12.526Z,44.46
2018-08-31T17:19:40.747Z,44.01
2018-08-31T17:22:09.064Z,44.21
2018-08-31T17:24:37.267Z,43.41
2018-08-31T17:27:10.956Z,44.00
2018-08-31T17:29:44.540Z,43.33
2018-08-31T17:32:18.474Z,44.14
2018-08-31T17:34:51.988Z,44.00
2018-08-31T17:37:25.516Z,43.68
2018-08-31T17:39:53.788Z,42.95
2018-08-31T17:42:22.015Z,43.79
2018-08-31T17:44:50.248Z,44.53
2018-08-31T17:47:18.475Z,45.05
2018-08-31T17:49:46.844Z,45.34
2018-08-31T17:52:15.456Z,45.29
2018-08-31T17:54:44.078Z,45.61
2018-08-31T17:57:12.380Z,44.53
2018-08-31T17:59:40.639Z,44.70
2018-08-31T18:02:09.352Z,44.73
2018-08-31T18:04:37.612Z,44.27
2018-08-31T18:07:06.113Z,44.94
2018-08-31T18:09:34.353Z,44.22
2018-08-31T18:12:02.685Z,43.96
2018-08-31T18:14:30.904Z,44.48
2018-08-31T18:16:59.185Z,44.88
2018-08-31T18:19:27.467Z,44.49
2018-08-31T18:21:55.679Z,44.83
2018-08-31T18:24:23.968Z,44.50
2018-08-31T18:26:52.171Z,45.05
2018-08-31T18:29:20.416Z,44.35
2018-08-31T18:31:48.655Z,45.02
2018-08-31T18:34:16.884Z,45.13
2018-08-31T18:36:45.119Z,45.15
2018-08-31T18:39:13.496Z,45.50
2018-08-31T18:41:41.704Z,45.74
2018-08-31T18:44:10.161Z,45.37
2018-08-31T18:46:38.433Z,45.33
2018-08-31T18:49:06.700Z,45.17
2018-08-31T18:51:35.044Z,45.18
2018-08-31T18:54:03.301Z,45.47
2018-08-31T18:56:31.499Z,45.37
2018-08-31T18:58:59.772Z,45.79
2018-08-31T19:01:28.057Z,46.34
2018-08-31T19:03:56.301Z,46.09
2018-08-31T19:06:24.528Z,46.60
2018-08-31T19:08:52.761Z,46.89
2018-08-31T19:11:20.961Z,46.35
2018-08-31T19:13:49.256Z,46.59
2018-08-31T19:16:17.463Z,46.75
2018-08-31T19:18:45.717Z,47.12
2018-08-31T19:21:13.909Z,47.12
2018-08-31T19:23:42.128Z,47.17
2018-08-31T19:26:10.363Z,47.41
2018-08-31T19:28:38.593Z,47.04
2018-08-31T19:31:07.128Z,47.76
2018-08-31T19:33:35.381Z,47.95
2018-08-31T19:36:03.600Z,48.48
2018-08-31T19:38:32.004Z,48.26
2018-08-31T19:41:00.271Z,48.59
2018-08-31T19:43:28.501Z,49.04
2018-08-31T19:45:56.713Z,49.45
2018-08-31T19:48:24.957Z,49.39
2018-08-31T19:50:53.169Z,49.99
2018-08-31T19:53:21.435Z,50.47
2018-08-31T19:55:49.655Z,49.70
2018-08-31T19:58:17.892Z,50.32
2018-08-31T20:00:46.100Z,51.14
2018-08-31T20:03:14.369Z,51.47
2018-08-31T20:05:42.620Z,51.25
2018-08-31T20:08:10.868Z,51.70
2018-08-31T20:10:39.828Z,51.44
2018-08-31T20:13:08.057Z,51.51
2018-08-31T20:15:36.280Z,51.16
2018-08-31T20:18:04.529Z,51.93
2018-08-31T20:20:32.800Z,51.55
2018-08-31T20:23:01.055Z,51.01
2018-08-31T20:25:29.292Z,51.63
2018-08-31T20:27:58.273Z,51.98
2018-08-31T20:30:26.508Z,51.88
2018-08-31T20:32:54.720Z,51.89
2018-08-31T20:35:23.026Z,52.66
2018-08-31T20:37:51.248Z,52.65
2018-08-31T20:40:19.538Z,52.62
2018-08-31T20:42:47.722Z,53.12
2018-08-31T20:45:15.959Z,52.72
2018-08-31T20:47:44.947Z,53.43
2018-08-31T20:50:13.196Z,53.35
2018-08-31T20:52:41.424Z,53.66
2018-08-31T20:55:09.724Z,53.57
2018-08-31T20:57:37.940Z,52.80
2018-08-31T21:00:06.816Z,53.20
2018-08-31T21:02:35.084Z,52.93
2018-08-31T21:05:03.331Z,52.25
2018-08-31T21:07:32.492Z,52.86
2018-08-31T21:10:00.736Z,52.47
2018-08-31T21:12:29.013Z,52.84
2018-08-31T21:14:57.256Z,53.82
2018-08-31T21:17:25.500Z,53.21
2018-08-31T21:19:53.733Z,53.66
2018-08-31T21:22:21.940Z,53.28
2018-08-31T21:24:50.184Z,53.83
2018-08-31T21:27:19.316Z,54.19
2018-08-31T21:29:47.532Z,54.52
2018-08-31T21:32:15.820Z,54.05
2018-08-31T21:34:43.989Z,54.38
2018-08-31T21:37:12.188Z,55.09
2018-08-31T21:39:40.411Z,56.05
2018-08-31T21:42:08.812Z,55.18
2018-08-31T21:44:36.962Z,54.79
2018-08-31T21:47:05.199Z,55.38
2018-08-31T21:49:33.563Z,55.22
2018-08-31T21:52:01.779Z,54.50
2018-08-31T21:54:30.260Z,54.72
2018-08-31T21:56:58.463Z,54.46
2018-08-31T21:59:26.648Z,54.74
2018-08-31T22:01:56.027Z,54.31
2018-08-31T22:04:24.868Z,54.68
2018-08-31T22:06:53.172Z,54.48
2018-08-31T22:09:21.424Z,54.93
2018-08-31T22:11:49.639Z,54.46
2018-08-31T22:14:17.845Z,54.44
2018-08-31T22:16:46.720Z,54.50
2018-08-31T22:19:15.028Z,54.47
2018-08-31T22:21:43.803Z,55.37
2018-08-31T22:24:12.440Z,55.51
2018-08-31T22:26:40.663Z,55.59
2018-08-31T22:29:08.863Z,55.35
2018-08-31T22:31:37.083Z,55.20
2018-08-31T22:34:05.288Z,55.61
2018-08-31T22:36:33.499Z,55.97
2018-08-31T22:39:01.704Z,55.69
2018-08-31T22:41:31.217Z,55.78
2018-08-31T22:44:01.385Z,56.07
2018-08-31T22:46:30.831Z,55.76
2018-08-31T22:49:01.133Z,56.01
2018-08-31T22:51:30.794Z,55.90
2018-08-31T22:54:00.771Z,56.14
2018-08-31T22:56:30.256Z,56.78
2018-08-31T22:59:00.540Z,56.73
2018-08-31T23:01:33.030Z,56.71
2018-08-31T23:04:02.698Z,56.75
2018-08-31T23:06:33.094Z,56.20
2018-08-31T23:09:01.353Z,56.00
2018-08-31T23:11:29.580Z,55.76
2018-08-31T23:13:57.808Z,56.46
2018-08-31T23:16:26.050Z,56.71
2018-08-31T23:18:54.269Z,56.48
2018-08-31T23:21:22.520Z,56.43
2018-08-31T23:23:50.724Z,56.52
2018-08-31T23:26:19.160Z,56.64
2018-08-31T23:28:47.372Z,56.74
2018-08-31T23:31:15.615Z,56.77
2018-08-31T23:33:43.860Z,56.81
2018-08-31T23:36:12.103Z,57.28
2018-08-31T23:38:40.323Z,57.24
2018-08-31T23:41:08.843Z,57.31
2018-08-31T23:43:37.039Z,56.77
2018-08-31T23:46:05.272Z,57.24
2018-08-31T23:48:33.497Z,57.17
2018-08-31T23:51:01.746Z,57.76
2018-08-31T23:53:29.968Z,57.26
2018-08-31T23:55:58.192Z,57.53
2018-08-31T23:58:26.395Z,57.92
